Etusivu
METAR-TAF:

METAR-TAF

Lentoasemat :

Kruger Mpumalangan kansainvälinen lentoasema

Krugerin luonnonpuisto, Etelä-Afrikka

Leveyspiiri: 25-23-00S, Pituuspiiri: 31-06-20E, korkeus merenpinnasta: 862 m

Tämänhetkinen sää

Tämä raportti tehtiin 29 minuuttia sitten, kello 10.00 UTC
tyyntä
Lämpötila 26°C
Kosteus 42%
Ilmanpaine 1018 hPa

METAR: FAKN 261000Z AUTO 00000KT //// // ////// 26/12 Q1018

Aika: 12:29 (10:29 UTC)

Sääennuste

Tämä raportti tehtiin 1 tunti ja 29 minuuttia sitten, kello 09.00 UTC
Ennuste voimassa 26. päivästä klo 10 UTC - 26. päivään klo 18 UTC
Tuuli 3 kn eri suunnista
Näkyvyys 10 km tai enemmän
ei pilviä alle 1500 m:ssä eikä cumulonimbus-pilviä
Tulossa
26. päivästä klo 12 UTC - 26. päivään klo 14 UTC
Tuuli 7 kn idästä/kaakosta
Tulossa
26. päivästä klo 16 UTC - 26. päivään klo 18 UTC
Hajanaisia pilviä 1500 ft:n korkeudessa

TAF: FAKN 260900Z 2610/2618 VRB03KT CAVOK TX28/2613Z TN18/2618Z BECMG 2612/2614 12007KT BECMG 2616/2618 SCT015

Säähavainnot ja -ennusteet yli 4000 lentoasemalta (METAR- ja TAF-raportit).

Käytössä olevat sääasemat on merkitty karttaan keltaisilla ja punaisilla pisteillä.

Aseta hiiri pisteen päälle nähdäksesi sääaseman nimen.

Klikkaa sitten nähdäksesi säähavainnot ja -ennusteet.

Kartan vaihtaminen: klikkaa mustalla rastilla varustettuja vihreitä pisteitä, niin voit zoomata sisään; viivalla varustettua vihreää pistettä, niin voit zoomata ulos tai vihreitä nuolia, niin pääset viereisille kartoille.


METAR-TAF: